Russell Municipal Airport
KRSL : now visible

Airfield :











YOU CAN JOIN US ON...

 
LOGIN :

Register | Disclaimer

   EN    FR    IT 

 









Legend :    VFR   Marginal VFR   IFR   Intensive IFR   Very Intensive IFR
Visi :
Ceiling :
>= 8 km
>= 3000ft
5 to 8 km
1000 to 3000 ft
1500m to 5 km
500 to 1000 ft
800 to 1500m
200 to 500 ft
< 800m
< 200 ft
Symbols :   Thunderstorms  Fog  Heavy snow  Heavy precipitations  Wind > 20 kt






- Airport Elevation : 1862 ft


KRSL - Russell Municipal

CURRENT METAR :
  • 091053Z AUTO 25009KT 10SM CLR M01/M03 A2953 RMK AO2 SLP005 T10061033

EXPIRED METARs :
  • 090953Z AUTO 25009KT 10SM CLR 01/M02 A2950 RMK AO2 PRESRR SLP995 T00061022
  • 090853Z AUTO 25006KT 10SM CLR 01/M01 A2947 RMK AO2 SLP981 T00111011 55000

TAF KRSL
Valid from the 09 at 06:00 until the 10 at 06:00 UTC


090540Z 0906/1006 18010KT P6SM SCT110
FM090800 23006KT P6SM FEW110 WS020/31035KT
FM091500 28010KT P6SM SKC
FM091800 34011KT P6SM FEW250
FM092300 05010KT P6SM FEW250
KZKC FIR / North America



MET'MAP, your aeronautical weather chart ! - Copyright ORBIFLY December 2007 - Disclaimer

ORBIFLY MET'MAP TEAM :

Programming & Development : Alexandra Zaïnal
Concept & original design : Baudouin d'Aumeries
Assistance for programming : Marc-Olivier Méhu
Technical & hardware support : Manuel Goepfert

Contact : metmap@orbifly.com




SOURCES & CREDITS :

   NOAA       Earth
Advisory